Time;durP1;ratioP1;P1;durP2;ratioP2;P2;SDS_P1;SDS_P2;PMS_P1;PMS_P2;Temp;Humidity;BMP_temperature;BMP_pressure;BME280_temperature;BME280_humidity;BME280_pressure;Samples;Min_cycle;Max_cycle;Signal;HPM_P1;HPM_P2
2023/07/26 00:02:06;;;;;;;8.20;1.88;;;;;;;;;;5039194;28;20564;-77
2023/07/26 00:04:31;;;;;;;7.78;1.98;;;;;;;;;;5047109;28;20055;-77
2023/07/26 00:06:56;;;;;;;7.97;2.30;;;;;;;;;;5030780;28;20041;-76
2023/07/26 00:09:22;;;;;;;4.93;2.15;;;;;;;;;;5032460;28;20033;-77
2023/07/26 00:11:47;;;;;;;8.35;1.77;;;;;;;;;;5041047;28;20067;-75
2023/07/26 00:14:13;;;;;;;11.25;2.53;;;;;;;;;;5051226;28;20025;-77
2023/07/26 00:16:39;;;;;;;6.03;2.05;;;;;;;;;;5037396;28;20420;-76
2023/07/26 00:19:05;;;;;;;5.90;2.65;;;;;;;;;;5047375;28;20022;-77
2023/07/26 00:21:31;;;;;;;5.93;1.90;;;;;;;;;;5038535;28;20064;-76
2023/07/26 00:23:58;;;;;;;6.68;1.73;;;;;;;;;;5051534;28;20021;-77
2023/07/26 00:26:24;;;;;;;3.45;1.63;;;;;;;;;;5041937;28;20035;-77
2023/07/26 00:28:50;;;;;;;6.30;1.65;;;;;;;;;;5037762;28;20021;-76
2023/07/26 00:31:15;;;;;;;6.10;1.60;;;;;;;;;;5033427;28;20075;-75
2023/07/26 00:33:41;;;;;;;6.18;1.90;;;;;;;;;;5060817;28;20048;-76
2023/07/26 00:36:06;;;;;;;5.05;1.65;;;;;;;;;;5057986;28;20014;-75
2023/07/26 00:38:32;;;;;;;3.53;1.50;;;;;;;;;;5047094;28;20040;-74
2023/07/26 00:40:57;;;;;;;6.97;1.73;;;;;;;;;;5078384;28;20053;-76
2023/07/26 00:43:23;;;;;;;4.85;1.35;;;;;;;;;;5048018;28;20034;-76
2023/07/26 00:45:49;;;;;;;6.20;1.50;;;;;;;;;;5075626;28;20032;-75
2023/07/26 00:48:15;;;;;;;5.45;1.60;;;;;;;;;;5049417;28;20025;-75
2023/07/26 00:50:41;;;;;;;6.88;1.75;;;;;;;;;;5055332;28;20129;-75
2023/07/26 00:53:07;;;;;;;8.25;1.85;;;;;;;;;;5041953;28;20021;-76
2023/07/26 00:55:34;;;;;;;5.10;1.50;;;;;;;;;;5049881;28;20104;-74
2023/07/26 00:58:00;;;;;;;8.05;1.58;;;;;;;;;;5053673;28;20067;-76
2023/07/26 01:00:25;;;;;;;5.32;1.30;;;;;;;;;;5055022;28;20029;-77
2023/07/26 01:02:51;;;;;;;6.95;1.63;;;;;;;;;;5044516;28;20136;-77
2023/07/26 01:05:17;;;;;;;3.15;1.52;;;;;;;;;;5029736;28;20050;-76
2023/07/26 01:07:54;;;;;;;6.90;1.40;;;;;;;;;;5036837;28;20035;-74
2023/07/26 01:10:24;;;;;;;6.47;1.52;;;;;;;;;;5043630;28;20026;-75
2023/07/26 01:13:09;;;;;;;3.95;1.40;;;;;;;;;;5025962;28;20556;-74
2023/07/26 01:15:37;;;;;;;5.40;1.50;;;;;;;;;;5031184;28;20041;-74
2023/07/26 01:18:08;;;;;;;6.80;1.33;;;;;;;;;;5053485;28;20067;-76
2023/07/26 01:20:34;;;;;;;6.05;1.60;;;;;;;;;;5049590;28;20115;-75
2023/07/26 01:22:59;;;;;;;5.07;1.40;;;;;;;;;;5024109;28;20120;-75
2023/07/26 01:25:25;;;;;;;7.95;1.92;;;;;;;;;;5030355;28;20507;-76
2023/07/26 01:27:50;;;;;;;4.07;1.20;;;;;;;;;;5053790;28;20044;-77
2023/07/26 01:30:16;;;;;;;5.32;1.40;;;;;;;;;;5021738;28;20090;-76
2023/07/26 01:32:42;;;;;;;5.05;1.42;;;;;;;;;;5055139;28;20021;-75
2023/07/26 01:35:08;;;;;;;4.75;1.52;;;;;;;;;;5034847;28;20484;-76
2023/07/26 01:37:34;;;;;;;5.38;1.48;;;;;;;;;;5061839;28;20025;-76
2023/07/26 01:40:00;;;;;;;3.55;1.20;;;;;;;;;;5064680;28;20033;-74
2023/07/26 01:42:26;;;;;;;5.78;1.58;;;;;;;;;;5056551;28;20036;-77
2023/07/26 01:44:51;;;;;;;5.28;1.30;;;;;;;;;;5054616;28;20056;-75
2023/07/26 01:47:17;;;;;;;5.32;1.85;;;;;;;;;;5049405;28;20111;-75
2023/07/26 01:49:42;;;;;;;6.78;1.50;;;;;;;;;;5051734;28;20037;-76
2023/07/26 01:52:08;;;;;;;3.67;1.38;;;;;;;;;;5036171;28;20025;-76
2023/07/26 01:54:35;;;;;;;9.10;1.65;;;;;;;;;;5045313;28;20022;-76
2023/07/26 01:57:01;;;;;;;7.40;1.20;;;;;;;;;;5044526;28;20457;-77
2023/07/26 01:59:26;;;;;;;7.72;1.48;;;;;;;;;;5053653;28;20079;-76
2023/07/26 02:01:52;;;;;;;10.77;1.30;;;;;;;;;;5019543;28;20409;-77
2023/07/26 02:04:17;;;;;;;4.72;1.27;;;;;;;;;;5047693;28;20393;-75
2023/07/26 02:06:43;;;;;;;5.18;1.60;;;;;;;;;;5040435;28;20104;-77
2023/07/26 02:09:08;;;;;;;4.68;1.40;;;;;;;;;;5027348;28;20391;-77
2023/07/26 02:11:34;;;;;;;5.93;1.63;;;;;;;;;;5035281;28;20025;-75
2023/07/26 02:13:59;;;;;;;4.07;1.10;;;;;;;;;;5035426;28;20034;-76
2023/07/26 02:16:25;;;;;;;6.22;1.30;;;;;;;;;;5031818;28;20063;-75
2023/07/26 02:18:50;;;;;;;4.38;1.30;;;;;;;;;;5042127;28;20070;-75
2023/07/26 02:21:19;;;;;;;6.85;1.50;;;;;;;;;;5051552;28;20029;-75
2023/07/26 02:23:44;;;;;;;7.90;1.40;;;;;;;;;;5035806;28;20049;-76
2023/07/26 02:26:10;;;;;;;4.30;1.55;;;;;;;;;;5048161;28;20033;-76
2023/07/26 02:28:35;;;;;;;5.60;1.70;;;;;;;;;;5023154;28;20040;-76
2023/07/26 02:31:01;;;;;;;4.85;1.20;;;;;;;;;;5053100;28;20025;-77
2023/07/26 02:33:28;;;;;;;3.97;1.27;;;;;;;;;;5037152;28;20021;-77
2023/07/26 02:35:59;;;;;;;4.57;1.35;;;;;;;;;;5050695;28;20029;-76
2023/07/26 02:38:24;;;;;;;5.30;1.20;;;;;;;;;;5046097;28;20026;-76
2023/07/26 02:40:50;;;;;;;4.95;1.45;;;;;;;;;;5041694;28;20442;-76
2023/07/26 02:43:15;;;;;;;5.97;1.42;;;;;;;;;;5051244;28;20037;-76
2023/07/26 02:45:41;;;;;;;4.90;1.25;;;;;;;;;;5035753;28;20033;-77
2023/07/26 02:48:07;;;;;;;11.10;1.60;;;;;;;;;;5051118;28;20032;-75
2023/07/26 02:50:32;;;;;;;10.95;1.67;;;;;;;;;;5044129;28;20032;-77
2023/07/26 02:52:58;;;;;;;4.43;1.30;;;;;;;;;;5041448;28;20096;-76
2023/07/26 02:55:24;;;;;;;5.88;1.38;;;;;;;;;;5036731;28;20025;-76
2023/07/26 02:57:50;;;;;;;3.92;1.25;;;;;;;;;;5049693;28;20025;-76
2023/07/26 03:00:15;;;;;;;5.25;1.48;;;;;;;;;;5046649;28;20044;-76
2023/07/26 03:02:41;;;;;;;6.22;1.45;;;;;;;;;;5038790;28;20094;-76
2023/07/26 03:05:06;;;;;;;5.63;1.48;;;;;;;;;;5014477;28;20493;-76
2023/07/26 03:07:32;;;;;;;6.20;1.30;;;;;;;;;;5042358;28;20515;-76
2023/07/26 03:09:57;;;;;;;9.73;1.92;;;;;;;;;;5048436;28;20083;-76
2023/07/26 03:12:23;;;;;;;11.85;2.20;;;;;;;;;;5020476;28;20032;-76
2023/07/26 03:14:49;;;;;;;4.93;1.52;;;;;;;;;;5053213;28;20520;-75
2023/07/26 03:17:14;;;;;;;9.98;1.70;;;;;;;;;;5041637;28;20031;-75
2023/07/26 03:19:40;;;;;;;4.63;1.52;;;;;;;;;;5047240;28;20029;-76
2023/07/26 03:22:05;;;;;;;7.22;1.52;;;;;;;;;;5063716;28;20120;-75
2023/07/26 03:24:31;;;;;;;5.47;1.30;;;;;;;;;;5060893;28;20063;-76
2023/07/26 03:26:57;;;;;;;5.85;1.98;;;;;;;;;;5064531;28;20040;-77
2023/07/26 03:29:22;;;;;;;7.40;1.60;;;;;;;;;;5050824;28;20052;-76
2023/07/26 03:31:48;;;;;;;8.90;1.60;;;;;;;;;;5056362;28;20397;-75
2023/07/26 03:34:13;;;;;;;10.02;1.67;;;;;;;;;;5050220;28;20033;-76
2023/07/26 03:36:39;;;;;;;3.80;1.50;;;;;;;;;;5048043;28;20435;-76
2023/07/26 03:39:05;;;;;;;5.75;1.40;;;;;;;;;;5042648;28;20021;-76
2023/07/26 03:41:30;;;;;;;4.78;1.35;;;;;;;;;;5045772;28;20488;-76
2023/07/26 03:43:56;;;;;;;5.30;1.50;;;;;;;;;;5033866;28;20041;-76
2023/07/26 03:46:22;;;;;;;6.97;1.42;;;;;;;;;;5019921;28;20037;-75
2023/07/26 03:48:47;;;;;;;3.78;1.02;;;;;;;;;;5043151;28;20053;-76
2023/07/26 03:51:13;;;;;;;7.10;1.60;;;;;;;;;;5032227;28;20035;-77
2023/07/26 03:53:38;;;;;;;11.43;2.72;;;;;;;;;;5046663;28;20032;-76
2023/07/26 03:56:04;;;;;;;3.72;1.20;;;;;;;;;;5030921;28;20029;-76
2023/07/26 03:58:29;;;;;;;5.43;1.40;;;;;;;;;;5037153;28;20025;-77
2023/07/26 04:00:55;;;;;;;9.95;1.70;;;;;;;;;;5024164;28;20029;-76
2023/07/26 04:03:20;;;;;;;6.40;1.90;;;;;;;;;;5045012;28;20060;-77
2023/07/26 04:05:46;;;;;;;5.70;1.45;;;;;;;;;;5033056;28;20040;-77
2023/07/26 04:08:11;;;;;;;7.43;1.30;;;;;;;;;;5036791;28;20427;-77
2023/07/26 04:10:37;;;;;;;7.78;1.42;;;;;;;;;;5048553;28;20118;-75
2023/07/26 04:13:02;;;;;;;4.82;1.45;;;;;;;;;;5043118;28;20025;-76
2023/07/26 04:15:31;;;;;;;8.32;1.67;;;;;;;;;;5048574;28;20025;-76
2023/07/26 04:17:56;;;;;;;7.05;1.25;;;;;;;;;;5021228;28;20040;-77
2023/07/26 04:20:22;;;;;;;8.13;1.88;;;;;;;;;;5050575;28;20045;-78
2023/07/26 04:22:48;;;;;;;7.55;1.98;;;;;;;;;;5044122;28;20027;-77
2023/07/26 04:25:13;;;;;;;3.95;1.50;;;;;;;;;;5042502;28;20120;-75
2023/07/26 04:27:39;;;;;;;7.60;1.70;;;;;;;;;;5049773;28;20037;-76
2023/07/26 04:30:05;;;;;;;6.50;2.05;;;;;;;;;;5038177;28;20025;-77
2023/07/26 04:32:31;;;;;;;6.22;1.73;;;;;;;;;;5046978;28;20032;-77
2023/07/26 04:34:56;;;;;;;5.78;1.40;;;;;;;;;;5044940;28;20058;-75
2023/07/26 04:37:22;;;;;;;4.75;1.50;;;;;;;;;;5054675;28;20111;-76
2023/07/26 04:39:48;;;;;;;7.65;1.42;;;;;;;;;;5052666;28;20036;-77
2023/07/26 04:42:13;;;;;;;3.40;1.40;;;;;;;;;;5039058;28;20025;-77
2023/07/26 04:44:39;;;;;;;3.67;1.77;;;;;;;;;;5036456;28;20021;-76
2023/07/26 04:47:05;;;;;;;4.45;1.25;;;;;;;;;;5042073;28;20030;-75
2023/07/26 04:49:30;;;;;;;6.32;1.40;;;;;;;;;;5048320;28;20025;-77
2023/07/26 04:51:56;;;;;;;6.80;1.50;;;;;;;;;;5052679;28;20032;-75
2023/07/26 04:54:21;;;;;;;4.82;2.13;;;;;;;;;;5038667;28;20502;-75
2023/07/26 04:56:47;;;;;;;11.05;2.17;;;;;;;;;;5033290;28;20035;-76
2023/07/26 04:59:12;;;;;;;3.72;1.30;;;;;;;;;;5045626;28;20104;-75
2023/07/26 05:01:38;;;;;;;6.93;1.50;;;;;;;;;;5037312;28;20100;-77
2023/07/26 05:04:03;;;;;;;4.68;1.40;;;;;;;;;;5049494;28;20035;-77
2023/07/26 05:06:30;;;;;;;5.97;1.63;;;;;;;;;;5040315;28;20029;-77
2023/07/26 05:08:56;;;;;;;5.20;1.40;;;;;;;;;;5053845;28;20039;-76
2023/07/26 05:11:22;;;;;;;4.85;1.27;;;;;;;;;;5054163;28;20036;-76
2023/07/26 05:13:49;;;;;;;7.20;1.23;;;;;;;;;;5036999;28;20538;-75
2023/07/26 05:16:14;;;;;;;5.88;1.42;;;;;;;;;;5049817;28;20036;-74
2023/07/26 05:18:40;;;;;;;4.22;1.40;;;;;;;;;;5040636;28;20017;-75
2023/07/26 05:21:05;;;;;;;7.93;1.75;;;;;;;;;;5053901;28;20037;-77
2023/07/26 05:23:31;;;;;;;4.65;1.35;;;;;;;;;;5037931;28;20029;-76
2023/07/26 05:25:56;;;;;;;8.52;2.00;;;;;;;;;;5032195;28;20029;-75
2023/07/26 05:28:22;;;;;;;6.45;1.75;;;;;;;;;;5021939;28;20029;-77
2023/07/26 05:30:47;;;;;;;2.83;1.17;;;;;;;;;;5043725;28;20037;-76
2023/07/26 05:33:14;;;;;;;5.22;1.60;;;;;;;;;;5046309;28;20396;-76
2023/07/26 05:35:39;;;;;;;5.95;1.77;;;;;;;;;;5052577;28;20090;-76
2023/07/26 05:38:05;;;;;;;7.28;1.83;;;;;;;;;;5037050;28;20024;-76
2023/07/26 05:40:30;;;;;;;5.30;1.40;;;;;;;;;;5045734;28;20504;-76
2023/07/26 05:42:56;;;;;;;5.22;1.70;;;;;;;;;;5026270;28;20488;-76
2023/07/26 05:45:21;;;;;;;6.65;1.48;;;;;;;;;;5053563;28;20079;-76
2023/07/26 05:47:47;;;;;;;4.57;1.50;;;;;;;;;;5037395;28;20136;-76
2023/07/26 05:50:12;;;;;;;6.68;1.35;;;;;;;;;;5048425;28;20029;-75
2023/07/26 05:52:38;;;;;;;4.55;1.30;;;;;;;;;;5023641;28;20120;-76
2023/07/26 05:55:04;;;;;;;5.85;1.63;;;;;;;;;;5042930;28;20041;-76
2023/07/26 05:57:30;;;;;;;5.25;1.75;;;;;;;;;;5033736;28;20510;-76
2023/07/26 05:59:55;;;;;;;6.32;2.10;;;;;;;;;;5059362;28;20036;-75
2023/07/26 06:02:21;;;;;;;6.43;1.63;;;;;;;;;;5053495;28;20040;-76
2023/07/26 06:04:46;;;;;;;9.75;2.13;;;;;;;;;;5060571;28;20053;-75
2023/07/26 06:07:12;;;;;;;10.18;1.75;;;;;;;;;;5059615;28;20052;-75
2023/07/26 06:09:38;;;;;;;4.15;1.38;;;;;;;;;;5055134;28;20083;-76
2023/07/26 06:12:04;;;;;;;6.03;1.80;;;;;;;;;;5054151;28;20030;-76
2023/07/26 06:14:36;;;;;;;8.32;1.88;;;;;;;;;;5057840;28;20526;-76
2023/07/26 06:17:02;;;;;;;7.15;1.63;;;;;;;;;;5060702;28;20029;-76
2023/07/26 06:19:28;;;;;;;9.20;1.73;;;;;;;;;;5051301;28;20098;-77
2023/07/26 06:21:55;;;;;;;9.15;2.33;;;;;;;;;;5049524;28;20136;-76
2023/07/26 06:24:24;;;;;;;8.35;1.38;;;;;;;;;;5032855;28;20045;-78
2023/07/26 06:26:51;;;;;;;5.05;1.83;;;;;;;;;;5041395;28;20091;-75
2023/07/26 06:29:16;;;;;;;6.57;2.67;;;;;;;;;;5039162;28;20373;-77
2023/07/26 06:31:42;;;;;;;6.63;1.88;;;;;;;;;;5049289;28;20058;-77
2023/07/26 06:34:07;;;;;;;7.38;1.55;;;;;;;;;;5035250;28;20021;-77
2023/07/26 06:36:33;;;;;;;3.72;1.55;;;;;;;;;;5038780;28;20025;-77
2023/07/26 06:38:58;;;;;;;10.80;1.70;;;;;;;;;;5041795;28;20087;-78
2023/07/26 06:41:24;;;;;;;10.20;1.88;;;;;;;;;;5033666;28;20029;-77
2023/07/26 06:43:50;;;;;;;3.83;1.65;;;;;;;;;;5033888;28;20065;-76
2023/07/26 06:46:15;;;;;;;9.32;1.60;;;;;;;;;;5036692;28;20025;-77
2023/07/26 06:48:41;;;;;;;5.25;1.70;;;;;;;;;;5052272;28;20039;-75
2023/07/26 06:51:06;;;;;;;6.40;1.55;;;;;;;;;;5040684;28;20104;-77
2023/07/26 06:53:32;;;;;;;7.03;1.50;;;;;;;;;;5047463;28;20472;-77
2023/07/26 06:55:58;;;;;;;5.25;1.30;;;;;;;;;;5049725;28;20025;-75
2023/07/26 06:58:24;;;;;;;6.30;1.75;;;;;;;;;;5037871;28;20025;-77
2023/07/26 07:00:49;;;;;;;3.03;1.45;;;;;;;;;;5051990;28;20074;-77
2023/07/26 07:03:15;;;;;;;7.63;2.13;;;;;;;;;;5037982;28;20037;-75
2023/07/26 07:05:40;;;;;;;8.57;1.48;;;;;;;;;;5046378;28;20040;-77
2023/07/26 07:08:06;;;;;;;12.93;2.00;;;;;;;;;;5032189;28;20038;-77
2023/07/26 07:10:31;;;;;;;6.30;1.60;;;;;;;;;;5017369;28;20499;-76
2023/07/26 07:12:57;;;;;;;6.30;1.60;;;;;;;;;;5041829;28;20090;-76
2023/07/26 07:15:22;;;;;;;4.88;1.40;;;;;;;;;;5038086;28;20097;-77
2023/07/26 07:17:48;;;;;;;9.10;2.25;;;;;;;;;;5015088;28;20036;-77
2023/07/26 07:20:13;;;;;;;5.57;1.50;;;;;;;;;;5035066;28;20018;-84
2023/07/26 07:22:39;;;;;;;8.43;2.25;;;;;;;;;;5019718;28;20029;-81
2023/07/26 07:25:05;;;;;;;8.80;2.50;;;;;;;;;;5014453;28;20029;-82
2023/07/26 07:27:30;;;;;;;6.88;1.73;;;;;;;;;;5047477;28;20025;-82
2023/07/26 07:29:56;;;;;;;5.72;1.40;;;;;;;;;;5035975;28;20428;-82
2023/07/26 07:32:21;;;;;;;8.63;1.73;;;;;;;;;;5029825;28;20522;-81
2023/07/26 07:34:47;;;;;;;9.38;2.08;;;;;;;;;;5041531;28;20035;-81
2023/07/26 07:37:13;;;;;;;7.70;1.58;;;;;;;;;;5053565;28;20029;-80
2023/07/26 07:39:38;;;;;;;8.63;1.70;;;;;;;;;;5038136;28;20038;-79
2023/07/26 07:42:04;;;;;;;6.03;1.77;;;;;;;;;;5052769;28;20450;-81
2023/07/26 07:44:30;;;;;;;4.70;1.45;;;;;;;;;;5049551;28;20026;-81
2023/07/26 07:46:55;;;;;;;10.20;1.40;;;;;;;;;;5045656;28;20164;-81
2023/07/26 07:49:21;;;;;;;4.22;1.42;;;;;;;;;;5054643;28;20029;-80
2023/07/26 07:51:47;;;;;;;6.03;1.50;;;;;;;;;;5054831;28;20032;-79
2023/07/26 07:54:12;;;;;;;6.75;1.15;;;;;;;;;;5034525;28;20419;-81
2023/07/26 07:56:39;;;;;;;3.85;1.55;;;;;;;;;;5026756;28;20419;-80
2023/07/26 07:59:04;;;;;;;3.58;1.17;;;;;;;;;;5043662;28;20113;-81
2023/07/26 08:01:30;;;;;;;5.28;1.35;;;;;;;;;;5016832;28;20102;-80
2023/07/26 08:03:58;;;;;;;6.00;1.67;;;;;;;;;;5054397;28;20032;-81
2023/07/26 08:06:24;;;;;;;3.55;1.27;;;;;;;;;;5025553;28;20029;-81
2023/07/26 08:08:49;;;;;;;3.03;1.35;;;;;;;;;;5048513;28;20056;-81
2023/07/26 08:11:15;;;;;;;3.75;1.40;;;;;;;;;;5004401;28;20095;-80
2023/07/26 08:13:41;;;;;;;3.17;1.38;;;;;;;;;;5048794;28;20487;-81
2023/07/26 08:16:07;;;;;;;4.80;1.10;;;;;;;;;;5051641;28;20507;-81
2023/07/26 08:18:33;;;;;;;5.15;1.50;;;;;;;;;;5008186;28;20043;-80
2023/07/26 08:20:59;;;;;;;5.78;1.52;;;;;;;;;;5032906;28;20036;-81
2023/07/26 08:23:26;;;;;;;5.40;1.20;;;;;;;;;;5031835;28;20037;-81
2023/07/26 08:25:52;;;;;;;2.97;1.38;;;;;;;;;;5042644;28;20054;-82
2023/07/26 08:28:18;;;;;;;3.75;1.20;;;;;;;;;;5014159;28;20036;-80
2023/07/26 08:30:44;;;;;;;4.18;1.40;;;;;;;;;;5065409;28;20055;-80
2023/07/26 08:33:09;;;;;;;4.47;1.45;;;;;;;;;;5044286;28;20140;-80
2023/07/26 08:35:35;;;;;;;2.72;1.30;;;;;;;;;;5050166;28;20400;-79
2023/07/26 08:38:03;;;;;;;5.63;1.35;;;;;;;;;;5034915;28;20411;-80
2023/07/26 08:40:29;;;;;;;6.80;1.40;;;;;;;;;;5023601;28;20116;-80
2023/07/26 08:42:56;;;;;;;3.58;1.48;;;;;;;;;;5045336;28;20021;-80
2023/07/26 08:45:22;;;;;;;5.18;1.48;;;;;;;;;;5049149;28;20037;-81
2023/07/26 08:47:48;;;;;;;2.83;1.02;;;;;;;;;;5043002;28;20022;-80
2023/07/26 08:50:14;;;;;;;6.78;1.50;;;;;;;;;;5063111;28;20025;-80
2023/07/26 08:52:40;;;;;;;4.07;1.40;;;;;;;;;;5060095;28;20044;-80
2023/07/26 08:55:07;;;;;;;5.50;1.15;;;;;;;;;;5074851;28;20033;-79
2023/07/26 08:57:32;;;;;;;7.22;1.50;;;;;;;;;;5059713;28;20041;-80
2023/07/26 08:59:58;;;;;;;5.45;1.73;;;;;;;;;;5070184;28;20084;-79
2023/07/26 09:02:24;;;;;;;3.72;1.35;;;;;;;;;;5058110;28;20495;-79
2023/07/26 09:04:50;;;;;;;4.85;1.23;;;;;;;;;;5040360;28;20029;-80
2023/07/26 09:07:19;;;;;;;4.40;1.10;;;;;;;;;;5050449;28;20078;-79
2023/07/26 09:09:44;;;;;;;4.50;1.33;;;;;;;;;;5038914;28;20036;-80
2023/07/26 09:12:22;;;;;;;5.13;1.30;;;;;;;;;;5039487;28;20041;-81
2023/07/26 09:14:51;;;;;;;4.07;1.20;;;;;;;;;;5037263;28;20033;-81
2023/07/26 09:17:17;;;;;;;4.72;1.42;;;;;;;;;;5024557;28;20032;-81
2023/07/26 09:19:43;;;;;;;10.60;1.52;;;;;;;;;;5011902;28;20029;-80
2023/07/26 09:22:08;;;;;;;3.65;1.42;;;;;;;;;;5055260;28;20037;-81
2023/07/26 09:24:39;;;;;;;9.32;1.50;;;;;;;;;;5054788;28;20024;-80
2023/07/26 09:27:09;;;;;;;5.53;1.40;;;;;;;;;;5037551;28;20036;-80
2023/07/26 09:29:35;;;;;;;4.00;1.50;;;;;;;;;;5055418;28;20111;-78
2023/07/26 09:32:01;;;;;;;3.05;1.15;;;;;;;;;;5038871;28;20484;-80
2023/07/26 09:34:29;;;;;;;4.72;1.48;;;;;;;;;;5053187;28;20021;-80
2023/07/26 09:36:56;;;;;;;5.35;1.20;;;;;;;;;;5054095;28;20044;-80
2023/07/26 09:39:22;;;;;;;4.65;1.33;;;;;;;;;;5039680;28;20025;-79
2023/07/26 09:41:49;;;;;;;6.88;1.38;;;;;;;;;;5050143;28;20028;-80
2023/07/26 09:44:23;;;;;;;3.13;1.17;;;;;;;;;;5032086;28;20123;-80
2023/07/26 09:46:53;;;;;;;4.05;1.20;;;;;;;;;;5026600;28;20144;-80
2023/07/26 09:49:23;;;;;;;4.57;1.55;;;;;;;;;;5043134;28;20033;-81
2023/07/26 09:51:53;;;;;;;4.07;1.50;;;;;;;;;;5042283;28;20400;-80
2023/07/26 09:54:20;;;;;;;3.33;1.20;;;;;;;;;;5057784;28;20040;-80
2023/07/26 09:56:46;;;;;;;4.82;1.50;;;;;;;;;;5046521;28;20080;-79
2023/07/26 09:59:29;;;;;;;;;;;;;;;;;;;;;
2023/07/26 10:02:11;;;;;;;9.65;1.55;;;;;;;;;;5046455;28;20037;-81
2023/07/26 10:04:50;;;;;;;4.45;1.40;;;;;;;;;;5020595;28;20067;-80
2023/07/26 10:07:17;;;;;;;3.90;1.30;;;;;;;;;;5036370;28;20096;-79
2023/07/26 10:09:44;;;;;;;4.57;1.40;;;;;;;;;;5061913;28;20040;-81
2023/07/26 10:12:10;;;;;;;4.22;1.20;;;;;;;;;;5026712;28;20029;-80
2023/07/26 10:14:36;;;;;;;3.33;1.20;;;;;;;;;;5024488;28;20477;-81
2023/07/26 10:17:06;;;;;;;6.40;1.60;;;;;;;;;;5034535;28;20611;-80
2023/07/26 10:19:32;;;;;;;3.72;1.30;;;;;;;;;;5034677;28;20029;-80
2023/07/26 10:21:58;;;;;;;6.80;1.50;;;;;;;;;;5010855;28;20028;-83
2023/07/26 10:24:24;;;;;;;4.28;1.70;;;;;;;;;;5018108;28;20029;-81
2023/07/26 10:26:50;;;;;;;4.22;1.10;;;;;;;;;;5020720;28;20055;-81
2023/07/26 10:29:17;;;;;;;4.03;1.40;;;;;;;;;;5022040;28;20092;-82
2023/07/26 10:31:44;;;;;;;2.42;1.30;;;;;;;;;;5055066;28;20037;-82
2023/07/26 10:34:21;;;;;;;4.07;1.27;;;;;;;;;;5033859;28;20415;-81
2023/07/26 10:36:47;;;;;;;3.05;1.35;;;;;;;;;;5052996;28;20043;-83
2023/07/26 10:39:14;;;;;;;3.13;1.00;;;;;;;;;;5044697;28;20029;-83
2023/07/26 10:41:47;;;;;;;5.60;1.88;;;;;;;;;;5026255;28;20033;-82
2023/07/26 10:44:12;;;;;;;12.48;2.03;;;;;;;;;;5032161;28;20525;-77
2023/07/26 10:46:57;;;;;;;13.90;2.67;;;;;;;;;;5044240;28;20121;-78
2023/07/26 10:49:27;;;;;;;7.28;2.65;;;;;;;;;;5037363;28;20045;-79
2023/07/26 10:52:04;;;;;;;12.98;3.10;;;;;;;;;;5027110;28;20032;-80
2023/07/26 10:54:32;;;;;;;7.03;2.45;;;;;;;;;;5045217;28;20038;-79
2023/07/26 10:57:16;;;;;;;5.22;2.85;;;;;;;;;;5040971;28;20045;-77
2023/07/26 10:59:58;;;;;;;7.50;2.92;;;;;;;;;;5034677;28;20560;-78
2023/07/26 11:02:38;;;;;;;4.40;2.75;;;;;;;;;;5037839;28;20024;-80
2023/07/26 11:05:06;;;;;;;6.63;2.60;;;;;;;;;;5040657;28;20032;-78
2023/07/26 11:07:50;;;;;;;7.83;3.37;;;;;;;;;;5046187;28;20033;-78
2023/07/26 11:10:17;;;;;;;10.98;5.18;;;;;;;;;;5036522;28;20297;-78
2023/07/26 11:12:43;;;;;;;14.65;6.28;;;;;;;;;;5051335;28;20028;-79
2023/07/26 11:15:08;;;;;;;17.08;6.60;;;;;;;;;;5040148;28;20033;-75
2023/07/26 11:17:39;;;;;;;12.93;7.13;;;;;;;;;;5047414;28;20079;-78
2023/07/26 11:20:04;;;;;;;13.43;7.82;;;;;;;;;;5040908;28;20033;-78
2023/07/26 11:22:30;;;;;;;8.30;5.35;;;;;;;;;;5048051;28;20025;-79
2023/07/26 11:25:01;;;;;;;7.95;3.78;;;;;;;;;;5049457;28;20028;-79
2023/07/26 11:27:27;;;;;;;7.10;2.00;;;;;;;;;;5060263;28;20096;-77
2023/07/26 11:29:52;;;;;;;4.82;2.10;;;;;;;;;;5045059;28;20041;-77
2023/07/26 11:32:24;;;;;;;6.82;2.53;;;;;;;;;;5053380;28;20037;-82
2023/07/26 11:34:53;;;;;;;5.70;2.50;;;;;;;;;;5046716;28;20072;-81
2023/07/26 11:37:19;;;;;;;4.15;2.10;;;;;;;;;;5063922;28;20031;-81
2023/07/26 11:39:45;;;;;;;4.32;2.28;;;;;;;;;;5068888;28;20072;-79
2023/07/26 11:42:15;;;;;;;3.95;2.58;;;;;;;;;;5051663;28;20029;-78
2023/07/26 11:44:40;;;;;;;2.28;1.25;;;;;;;;;;5065814;28;20029;-77
2023/07/26 11:47:07;;;;;;;4.82;1.73;;;;;;;;;;5050188;28;20494;-78
2023/07/26 11:49:32;;;;;;;6.45;1.90;;;;;;;;;;5044051;28;20036;-78
2023/07/26 11:51:58;;;;;;;3.58;1.25;;;;;;;;;;5040466;28;20035;-79
2023/07/26 11:54:23;;;;;;;4.95;1.60;;;;;;;;;;5044970;28;20026;-79
2023/07/26 11:56:50;;;;;;;14.98;1.73;;;;;;;;;;5022546;28;20074;-78
2023/07/26 11:59:16;;;;;;;4.90;1.60;;;;;;;;;;5037406;28;20076;-78
2023/07/26 12:01:42;;;;;;;4.60;1.60;;;;;;;;;;5047342;28;20435;-78
2023/07/26 12:04:08;;;;;;;2.63;1.20;;;;;;;;;;5050580;28;20395;-76
2023/07/26 12:06:35;;;;;;;5.63;1.50;;;;;;;;;;5036549;28;20037;-76
2023/07/26 12:09:03;;;;;;;3.83;1.50;;;;;;;;;;5041394;28;20033;-78
2023/07/26 12:11:28;;;;;;;3.17;1.33;;;;;;;;;;5042130;28;20402;-77
2023/07/26 12:13:58;;;;;;;2.47;1.30;;;;;;;;;;5016830;28;20030;-77
2023/07/26 12:16:30;;;;;;;2.80;1.40;;;;;;;;;;5013001;28;20022;-78
2023/07/26 12:19:26;;;;;;;4.55;1.50;;;;;;;;;;5036800;28;20030;-77
2023/07/26 12:22:18;;;;;;;;;;;;;;;;;;;;;
2023/07/26 12:25:07;;;;;;;3.03;1.38;;;;;;;;;;5039539;28;20033;-78
2023/07/26 12:27:53;;;;;;;3.50;1.85;;;;;;;;;;5034770;28;20424;-77
2023/07/26 12:30:28;;;;;;;5.65;1.63;;;;;;;;;;5033584;28;20042;-75
2023/07/26 12:33:10;;;;;;;3.05;1.90;;;;;;;;;;5041981;28;20029;-77
2023/07/26 12:35:36;;;;;;;2.53;1.30;;;;;;;;;;5041511;28;20033;-77
2023/07/26 12:38:23;;;;;;;;;;;;;;;;;;;;;
2023/07/26 12:40:51;;;;;;;4.35;1.75;;;;;;;;;;5047788;28;20029;-77
2023/07/26 12:43:20;;;;;;;3.90;1.90;;;;;;;;;;5044718;28;20083;-74
2023/07/26 12:45:50;;;;;;;5.35;1.88;;;;;;;;;;5048457;28;20055;-76
2023/07/26 12:48:25;;;;;;;4.95;1.65;;;;;;;;;;5037882;28;20024;-74
2023/07/26 12:50:52;;;;;;;3.83;1.67;;;;;;;;;;5046644;28;20029;-76
2023/07/26 12:53:19;;;;;;;6.57;1.90;;;;;;;;;;5027272;28;20029;-75
2023/07/26 12:55:44;;;;;;;3.33;1.48;;;;;;;;;;5038774;28;20039;-76
2023/07/26 12:58:10;;;;;;;2.58;1.35;;;;;;;;;;5033522;28;20033;-77
2023/07/26 13:00:38;;;;;;;3.38;1.77;;;;;;;;;;5048147;28;20065;-75
2023/07/26 13:03:04;;;;;;;3.00;1.80;;;;;;;;;;5043028;28;20049;-76
2023/07/26 13:05:30;;;;;;;7.63;1.60;;;;;;;;;;5053968;28;20059;-75
2023/07/26 13:07:58;;;;;;;4.68;2.10;;;;;;;;;;5038170;28;20036;-75
2023/07/26 13:10:27;;;;;;;3.40;1.70;;;;;;;;;;5032899;28;20031;-75
2023/07/26 13:12:53;;;;;;;3.20;1.40;;;;;;;;;;5027517;28;20025;-76
2023/07/26 13:15:19;;;;;;;5.45;1.30;;;;;;;;;;5044756;28;20487;-75
2023/07/26 13:17:45;;;;;;;3.65;1.52;;;;;;;;;;5022524;28;20030;-76
2023/07/26 13:20:11;;;;;;;3.63;1.65;;;;;;;;;;5048908;28;20488;-75
2023/07/26 13:22:36;;;;;;;3.22;1.48;;;;;;;;;;5031253;28;20033;-75
2023/07/26 13:25:02;;;;;;;2.92;1.30;;;;;;;;;;5040592;28;20094;-74
2023/07/26 13:27:28;;;;;;;5.78;1.35;;;;;;;;;;5052628;28;20032;-75
2023/07/26 13:29:53;;;;;;;3.53;1.50;;;;;;;;;;5037360;28;20121;-76
2023/07/26 13:32:21;;;;;;;3.70;1.40;;;;;;;;;;5048665;28;20032;-76
2023/07/26 13:34:46;;;;;;;4.40;1.60;;;;;;;;;;5022212;28;20451;-76
2023/07/26 13:37:12;;;;;;;5.68;1.40;;;;;;;;;;5051436;28;20108;-75
2023/07/26 13:39:37;;;;;;;2.60;1.20;;;;;;;;;;5046342;28;20088;-77
2023/07/26 13:42:03;;;;;;;3.05;1.38;;;;;;;;;;5049676;28;20440;-76
2023/07/26 13:44:28;;;;;;;3.10;1.30;;;;;;;;;;5051905;28;20040;-76
2023/07/26 13:46:54;;;;;;;4.82;1.77;;;;;;;;;;5046083;28;20021;-76
2023/07/26 13:49:20;;;;;;;3.55;1.30;;;;;;;;;;5032801;28;20033;-77
2023/07/26 13:51:46;;;;;;;2.47;1.17;;;;;;;;;;5036897;28;20030;-77
2023/07/26 13:54:20;;;;;;;3.40;1.33;;;;;;;;;;5046794;28;20476;-77
2023/07/26 13:56:54;;;;;;;6.35;1.33;;;;;;;;;;5043663;28;20083;-76
2023/07/26 13:59:20;;;;;;;3.72;1.30;;;;;;;;;;5043857;28;20493;-76
2023/07/26 14:01:46;;;;;;;3.50;1.45;;;;;;;;;;5051369;28;20025;-76
2023/07/26 14:04:11;;;;;;;4.90;1.50;;;;;;;;;;5036447;28;20454;-75
2023/07/26 14:06:37;;;;;;;5.25;1.52;;;;;;;;;;5048344;28;20074;-76
2023/07/26 14:09:02;;;;;;;4.90;1.25;;;;;;;;;;5042047;28;20029;-75
2023/07/26 14:11:28;;;;;;;4.93;1.55;;;;;;;;;;5055555;28;20029;-76
2023/07/26 14:13:56;;;;;;;3.28;1.20;;;;;;;;;;5052767;28;20040;-75
2023/07/26 14:16:21;;;;;;;2.47;1.30;;;;;;;;;;5047423;28;20169;-74
2023/07/26 14:18:47;;;;;;;5.10;1.38;;;;;;;;;;5035886;28;20298;-76
2023/07/26 14:21:12;;;;;;;3.13;1.30;;;;;;;;;;5061666;28;20353;-74
2023/07/26 14:23:39;;;;;;;3.13;1.30;;;;;;;;;;5041658;28;20017;-75
2023/07/26 14:26:07;;;;;;;3.72;1.27;;;;;;;;;;5070943;28;20037;-76
2023/07/26 14:28:33;;;;;;;2.38;1.17;;;;;;;;;;5068617;28;20037;-76
2023/07/26 14:30:58;;;;;;;3.03;1.30;;;;;;;;;;5061214;28;20438;-77
2023/07/26 14:33:24;;;;;;;3.08;1.13;;;;;;;;;;5053825;28;20021;-76
2023/07/26 14:35:49;;;;;;;4.82;1.45;;;;;;;;;;5049092;28;20513;-75
2023/07/26 14:38:15;;;;;;;4.28;1.35;;;;;;;;;;5051345;28;20488;-76
2023/07/26 14:40:40;;;;;;;2.53;1.27;;;;;;;;;;5046144;28;20017;-75
2023/07/26 14:43:06;;;;;;;4.07;1.38;;;;;;;;;;5040864;28;20032;-75
2023/07/26 14:45:31;;;;;;;2.92;1.20;;;;;;;;;;5053046;28;20017;-75